sensor_id;sensor_type;location;lat;lon;timestamp;P1;durP1;ratioP1;P2;durP2;ratioP2
51792;SDS011;37850;53.178;6.376;2023-03-01T00:02:20;14.52;;;8.43;;
51792;SDS011;37850;53.178;6.376;2023-03-01T00:04:46;16.25;;;8.25;;
51792;SDS011;37850;53.178;6.376;2023-03-01T00:07:12;14.77;;;8.43;;
51792;SDS011;37850;53.178;6.376;2023-03-01T00:09:38;14.63;;;8.18;;
51792;SDS011;37850;53.178;6.376;2023-03-01T00:12:05;18.10;;;9.23;;
51792;SDS011;37850;53.178;6.376;2023-03-01T00:14:31;17.02;;;9.48;;
51792;SDS011;37850;53.178;6.376;2023-03-01T00:16:57;19.63;;;11.13;;
51792;SDS011;37850;53.178;6.376;2023-03-01T00:19:23;23.27;;;11.20;;
51792;SDS011;37850;53.178;6.376;2023-03-01T00:21:49;21.98;;;12.48;;
51792;SDS011;37850;53.178;6.376;2023-03-01T00:24:15;23.67;;;12.20;;
51792;SDS011;37850;53.178;6.376;2023-03-01T00:26:41;22.50;;;11.93;;
51792;SDS011;37850;53.178;6.376;2023-03-01T00:29:07;27.95;;;12.98;;
51792;SDS011;37850;53.178;6.376;2023-03-01T00:31:33;27.70;;;12.98;;
51792;SDS011;37850;53.178;6.376;2023-03-01T00:34:00;25.50;;;13.40;;
51792;SDS011;37850;53.178;6.376;2023-03-01T00:36:29;27.48;;;14.23;;
51792;SDS011;37850;53.178;6.376;2023-03-01T00:38:57;31.40;;;15.20;;
51792;SDS011;37850;53.178;6.376;2023-03-01T00:41:23;28.13;;;13.95;;
51792;SDS011;37850;53.178;6.376;2023-03-01T00:43:51;27.13;;;14.07;;
51792;SDS011;37850;53.178;6.376;2023-03-01T00:46:20;28.42;;;13.38;;
51792;SDS011;37850;53.178;6.376;2023-03-01T00:48:47;28.38;;;14.02;;
51792;SDS011;37850;53.178;6.376;2023-03-01T00:51:18;30.75;;;14.88;;
51792;SDS011;37850;53.178;6.376;2023-03-01T00:53:47;22.92;;;13.30;;
51792;SDS011;37850;53.178;6.376;2023-03-01T00:56:16;26.70;;;13.90;;
51792;SDS011;37850;53.178;6.376;2023-03-01T00:58:42;28.98;;;14.60;;
51792;SDS011;37850;53.178;6.376;2023-03-01T01:03:48;25.23;;;12.95;;
51792;SDS011;37850;53.178;6.376;2023-03-01T01:08:43;24.10;;;12.48;;
51792;SDS011;37850;53.178;6.376;2023-03-01T01:11:09;26.00;;;13.60;;
51792;SDS011;37850;53.178;6.376;2023-03-01T01:13:36;24.20;;;13.52;;
51792;SDS011;37850;53.178;6.376;2023-03-01T01:16:03;30.90;;;14.25;;
51792;SDS011;37850;53.178;6.376;2023-03-01T01:18:29;27.48;;;14.38;;
51792;SDS011;37850;53.178;6.376;2023-03-01T01:20:55;25.23;;;13.55;;
51792;SDS011;37850;53.178;6.376;2023-03-01T01:23:20;22.70;;;11.88;;
51792;SDS011;37850;53.178;6.376;2023-03-01T01:25:46;16.73;;;9.88;;
51792;SDS011;37850;53.178;6.376;2023-03-01T01:28:12;15.63;;;9.27;;
51792;SDS011;37850;53.178;6.376;2023-03-01T01:30:38;16.10;;;8.70;;
51792;SDS011;37850;53.178;6.376;2023-03-01T01:33:03;13.65;;;7.82;;
51792;SDS011;37850;53.178;6.376;2023-03-01T01:35:29;15.15;;;8.43;;
51792;SDS011;37850;53.178;6.376;2023-03-01T01:37:55;16.50;;;7.82;;
51792;SDS011;37850;53.178;6.376;2023-03-01T01:40:21;17.33;;;7.90;;
51792;SDS011;37850;53.178;6.376;2023-03-01T01:42:47;18.30;;;8.35;;
51792;SDS011;37850;53.178;6.376;2023-03-01T01:47:59;18.83;;;9.00;;
51792;SDS011;37850;53.178;6.376;2023-03-01T01:50:28;26.88;;;7.97;;
51792;SDS011;37850;53.178;6.376;2023-03-01T01:53:02;14.05;;;7.72;;
51792;SDS011;37850;53.178;6.376;2023-03-01T01:55:34;13.40;;;7.82;;
51792;SDS011;37850;53.178;6.376;2023-03-01T01:58:05;16.30;;;8.05;;
51792;SDS011;37850;53.178;6.376;2023-03-01T02:00:33;15.88;;;8.05;;
51792;SDS011;37850;53.178;6.376;2023-03-01T02:03:00;15.55;;;7.97;;
51792;SDS011;37850;53.178;6.376;2023-03-01T02:08:23;14.02;;;7.60;;
51792;SDS011;37850;53.178;6.376;2023-03-01T02:10:51;24.38;;;7.80;;
51792;SDS011;37850;53.178;6.376;2023-03-01T02:13:17;16.77;;;7.75;;
51792;SDS011;37850;53.178;6.376;2023-03-01T02:15:43;11.38;;;7.28;;
51792;SDS011;37850;53.178;6.376;2023-03-01T02:18:11;15.13;;;7.60;;
51792;SDS011;37850;53.178;6.376;2023-03-01T02:23:20;14.67;;;7.33;;
51792;SDS011;37850;53.178;6.376;2023-03-01T02:28:48;13.02;;;7.45;;
51792;SDS011;37850;53.178;6.376;2023-03-01T02:31:14;12.50;;;7.00;;
51792;SDS011;37850;53.178;6.376;2023-03-01T02:34:10;12.32;;;6.72;;
51792;SDS011;37850;53.178;6.376;2023-03-01T02:36:46;12.13;;;6.65;;
51792;SDS011;37850;53.178;6.376;2023-03-01T02:39:15;15.75;;;6.65;;
51792;SDS011;37850;53.178;6.376;2023-03-01T02:41:46;10.88;;;6.60;;
51792;SDS011;37850;53.178;6.376;2023-03-01T02:44:15;14.23;;;6.80;;
51792;SDS011;37850;53.178;6.376;2023-03-01T02:46:44;13.75;;;6.70;;
51792;SDS011;37850;53.178;6.376;2023-03-01T02:49:55;12.88;;;6.47;;
51792;SDS011;37850;53.178;6.376;2023-03-01T02:54:47;14.95;;;8.00;;
51792;SDS011;37850;53.178;6.376;2023-03-01T02:57:18;17.02;;;8.43;;
51792;SDS011;37850;53.178;6.376;2023-03-01T02:59:44;15.80;;;7.63;;
51792;SDS011;37850;53.178;6.376;2023-03-01T03:02:24;68.30;;;8.75;;
51792;SDS011;37850;53.178;6.376;2023-03-01T03:05:03;14.07;;;7.38;;
51792;SDS011;37850;53.178;6.376;2023-03-01T03:07:40;30.73;;;8.57;;
51792;SDS011;37850;53.178;6.376;2023-03-01T03:10:09;38.97;;;9.32;;
51792;SDS011;37850;53.178;6.376;2023-03-01T03:12:37;42.67;;;9.10;;
51792;SDS011;37850;53.178;6.376;2023-03-01T03:15:04;16.10;;;8.48;;
51792;SDS011;37850;53.178;6.376;2023-03-01T03:17:37;25.85;;;9.13;;
51792;SDS011;37850;53.178;6.376;2023-03-01T03:20:04;19.95;;;10.02;;
51792;SDS011;37850;53.178;6.376;2023-03-01T03:22:35;20.52;;;10.82;;
51792;SDS011;37850;53.178;6.376;2023-03-01T03:25:02;17.55;;;9.98;;
51792;SDS011;37850;53.178;6.376;2023-03-01T03:27:28;16.63;;;9.00;;
51792;SDS011;37850;53.178;6.376;2023-03-01T03:29:54;17.75;;;9.82;;
51792;SDS011;37850;53.178;6.376;2023-03-01T03:32:19;17.27;;;9.65;;
51792;SDS011;37850;53.178;6.376;2023-03-01T03:34:45;17.33;;;9.57;;
51792;SDS011;37850;53.178;6.376;2023-03-01T03:37:11;21.50;;;10.05;;
51792;SDS011;37850;53.178;6.376;2023-03-01T03:39:57;18.08;;;10.30;;
51792;SDS011;37850;53.178;6.376;2023-03-01T03:42:23;18.90;;;9.25;;
51792;SDS011;37850;53.178;6.376;2023-03-01T03:44:49;18.90;;;9.45;;
51792;SDS011;37850;53.178;6.376;2023-03-01T03:47:15;19.50;;;9.57;;
51792;SDS011;37850;53.178;6.376;2023-03-01T03:49:40;18.98;;;9.77;;
51792;SDS011;37850;53.178;6.376;2023-03-01T03:52:06;20.75;;;10.38;;
51792;SDS011;37850;53.178;6.376;2023-03-01T03:54:39;18.55;;;9.80;;
51792;SDS011;37850;53.178;6.376;2023-03-01T03:57:05;17.90;;;9.40;;
51792;SDS011;37850;53.178;6.376;2023-03-01T03:59:31;20.58;;;9.63;;
51792;SDS011;37850;53.178;6.376;2023-03-01T04:01:57;18.25;;;10.52;;
51792;SDS011;37850;53.178;6.376;2023-03-01T04:04:23;18.42;;;9.70;;
51792;SDS011;37850;53.178;6.376;2023-03-01T04:06:49;19.42;;;8.95;;
51792;SDS011;37850;53.178;6.376;2023-03-01T04:09:14;17.73;;;8.52;;
51792;SDS011;37850;53.178;6.376;2023-03-01T04:11:40;23.85;;;9.18;;
51792;SDS011;37850;53.178;6.376;2023-03-01T04:14:06;35.95;;;8.70;;
51792;SDS011;37850;53.178;6.376;2023-03-01T04:16:32;48.88;;;8.90;;
51792;SDS011;37850;53.178;6.376;2023-03-01T04:18:57;35.63;;;8.77;;
51792;SDS011;37850;53.178;6.376;2023-03-01T04:21:25;41.08;;;9.00;;
51792;SDS011;37850;53.178;6.376;2023-03-01T04:23:51;15.70;;;8.40;;
51792;SDS011;37850;53.178;6.376;2023-03-01T04:26:18;17.08;;;8.18;;
51792;SDS011;37850;53.178;6.376;2023-03-01T04:28:45;16.48;;;8.73;;
51792;SDS011;37850;53.178;6.376;2023-03-01T04:31:14;36.58;;;8.90;;
51792;SDS011;37850;53.178;6.376;2023-03-01T04:33:44;36.15;;;8.90;;
51792;SDS011;37850;53.178;6.376;2023-03-01T04:36:13;24.23;;;8.10;;
51792;SDS011;37850;53.178;6.376;2023-03-01T04:38:40;18.17;;;9.07;;
51792;SDS011;37850;53.178;6.376;2023-03-01T04:41:07;22.23;;;9.63;;
51792;SDS011;37850;53.178;6.376;2023-03-01T04:43:35;17.85;;;9.25;;
51792;SDS011;37850;53.178;6.376;2023-03-01T04:46:05;21.05;;;9.45;;
51792;SDS011;37850;53.178;6.376;2023-03-01T04:48:34;42.28;;;9.50;;
51792;SDS011;37850;53.178;6.376;2023-03-01T04:51:04;19.30;;;8.98;;
51792;SDS011;37850;53.178;6.376;2023-03-01T04:53:30;20.38;;;7.88;;
51792;SDS011;37850;53.178;6.376;2023-03-01T04:56:04;36.87;;;8.40;;
51792;SDS011;37850;53.178;6.376;2023-03-01T04:58:30;13.93;;;7.65;;
51792;SDS011;37850;53.178;6.376;2023-03-01T05:00:57;14.75;;;7.82;;
51792;SDS011;37850;53.178;6.376;2023-03-01T05:03:23;18.77;;;7.88;;
51792;SDS011;37850;53.178;6.376;2023-03-01T05:05:50;13.23;;;7.25;;
51792;SDS011;37850;53.178;6.376;2023-03-01T05:08:17;26.63;;;7.20;;
51792;SDS011;37850;53.178;6.376;2023-03-01T05:10:48;11.70;;;6.07;;
51792;SDS011;37850;53.178;6.376;2023-03-01T05:13:17;13.38;;;6.95;;
51792;SDS011;37850;53.178;6.376;2023-03-01T05:15:54;14.60;;;7.97;;
51792;SDS011;37850;53.178;6.376;2023-03-01T05:18:22;13.07;;;6.75;;
51792;SDS011;37850;53.178;6.376;2023-03-01T05:20:51;14.02;;;6.82;;
51792;SDS011;37850;53.178;6.376;2023-03-01T05:23:21;11.82;;;6.72;;
51792;SDS011;37850;53.178;6.376;2023-03-01T05:25:47;15.48;;;7.70;;
51792;SDS011;37850;53.178;6.376;2023-03-01T05:28:14;15.70;;;7.57;;
51792;SDS011;37850;53.178;6.376;2023-03-01T05:30:40;16.60;;;8.05;;
51792;SDS011;37850;53.178;6.376;2023-03-01T05:33:06;12.35;;;7.15;;
51792;SDS011;37850;53.178;6.376;2023-03-01T05:35:44;15.48;;;8.07;;
51792;SDS011;37850;53.178;6.376;2023-03-01T05:38:11;14.85;;;7.97;;
51792;SDS011;37850;53.178;6.376;2023-03-01T05:40:38;16.05;;;7.65;;
51792;SDS011;37850;53.178;6.376;2023-03-01T05:43:06;13.70;;;6.93;;
51792;SDS011;37850;53.178;6.376;2023-03-01T05:45:32;13.50;;;6.78;;
51792;SDS011;37850;53.178;6.376;2023-03-01T05:47:58;16.60;;;7.10;;
51792;SDS011;37850;53.178;6.376;2023-03-01T05:50:25;16.75;;;8.13;;
51792;SDS011;37850;53.178;6.376;2023-03-01T05:52:56;12.90;;;7.45;;
51792;SDS011;37850;53.178;6.376;2023-03-01T05:55:27;17.83;;;8.13;;
51792;SDS011;37850;53.178;6.376;2023-03-01T05:57:54;12.32;;;6.90;;
51792;SDS011;37850;53.178;6.376;2023-03-01T06:00:21;14.73;;;7.82;;
51792;SDS011;37850;53.178;6.376;2023-03-01T06:02:47;15.65;;;8.27;;
51792;SDS011;37850;53.178;6.376;2023-03-01T06:05:13;13.70;;;7.00;;
51792;SDS011;37850;53.178;6.376;2023-03-01T06:07:39;15.90;;;8.02;;
51792;SDS011;37850;53.178;6.376;2023-03-01T06:10:06;16.20;;;7.20;;
51792;SDS011;37850;53.178;6.376;2023-03-01T06:12:33;15.05;;;7.63;;
51792;SDS011;37850;53.178;6.376;2023-03-01T06:15:00;16.95;;;8.38;;
51792;SDS011;37850;53.178;6.376;2023-03-01T06:17:28;14.77;;;8.07;;
51792;SDS011;37850;53.178;6.376;2023-03-01T06:19:55;16.30;;;8.32;;
51792;SDS011;37850;53.178;6.376;2023-03-01T06:22:21;18.58;;;8.50;;
51792;SDS011;37850;53.178;6.376;2023-03-01T06:24:47;14.70;;;7.60;;
51792;SDS011;37850;53.178;6.376;2023-03-01T06:27:12;12.38;;;6.63;;
51792;SDS011;37850;53.178;6.376;2023-03-01T06:29:42;12.07;;;6.72;;
51792;SDS011;37850;53.178;6.376;2023-03-01T06:32:08;12.05;;;6.72;;
51792;SDS011;37850;53.178;6.376;2023-03-01T06:34:33;13.32;;;7.13;;
51792;SDS011;37850;53.178;6.376;2023-03-01T06:36:59;13.90;;;7.03;;
51792;SDS011;37850;53.178;6.376;2023-03-01T06:39:30;13.35;;;7.30;;
51792;SDS011;37850;53.178;6.376;2023-03-01T06:41:56;14.60;;;7.70;;
51792;SDS011;37850;53.178;6.376;2023-03-01T06:44:22;15.98;;;7.43;;
51792;SDS011;37850;53.178;6.376;2023-03-01T06:46:48;15.02;;;7.88;;
51792;SDS011;37850;53.178;6.376;2023-03-01T06:49:14;15.27;;;8.32;;
51792;SDS011;37850;53.178;6.376;2023-03-01T06:51:41;18.40;;;9.93;;
51792;SDS011;37850;53.178;6.376;2023-03-01T06:54:07;14.77;;;7.93;;
51792;SDS011;37850;53.178;6.376;2023-03-01T06:56:33;15.00;;;8.00;;
51792;SDS011;37850;53.178;6.376;2023-03-01T06:58:58;15.45;;;7.75;;
51792;SDS011;37850;53.178;6.376;2023-03-01T07:01:24;15.65;;;8.48;;
51792;SDS011;37850;53.178;6.376;2023-03-01T07:03:50;14.75;;;7.72;;
51792;SDS011;37850;53.178;6.376;2023-03-01T07:06:16;13.90;;;7.47;;
51792;SDS011;37850;53.178;6.376;2023-03-01T07:08:42;14.85;;;7.10;;
51792;SDS011;37850;53.178;6.376;2023-03-01T07:11:08;11.30;;;6.60;;
51792;SDS011;37850;53.178;6.376;2023-03-01T07:13:34;12.10;;;6.80;;
51792;SDS011;37850;53.178;6.376;2023-03-01T07:15:59;12.93;;;7.22;;
51792;SDS011;37850;53.178;6.376;2023-03-01T07:18:26;12.07;;;6.70;;
51792;SDS011;37850;53.178;6.376;2023-03-01T07:20:51;10.65;;;6.18;;
51792;SDS011;37850;53.178;6.376;2023-03-01T07:23:17;14.00;;;7.53;;
51792;SDS011;37850;53.178;6.376;2023-03-01T07:25:43;11.05;;;6.90;;
51792;SDS011;37850;53.178;6.376;2023-03-01T07:28:09;16.90;;;6.72;;
51792;SDS011;37850;53.178;6.376;2023-03-01T07:30:35;12.55;;;6.70;;
51792;SDS011;37850;53.178;6.376;2023-03-01T07:33:01;11.07;;;6.68;;
51792;SDS011;37850;53.178;6.376;2023-03-01T07:35:27;10.65;;;6.40;;
51792;SDS011;37850;53.178;6.376;2023-03-01T07:37:53;12.05;;;6.32;;
51792;SDS011;37850;53.178;6.376;2023-03-01T07:40:19;12.35;;;6.18;;
51792;SDS011;37850;53.178;6.376;2023-03-01T07:42:45;10.10;;;5.78;;
51792;SDS011;37850;53.178;6.376;2023-03-01T07:45:10;11.25;;;6.13;;
51792;SDS011;37850;53.178;6.376;2023-03-01T07:47:38;9.77;;;5.50;;
51792;SDS011;37850;53.178;6.376;2023-03-01T07:50:04;10.80;;;6.38;;
51792;SDS011;37850;53.178;6.376;2023-03-01T07:52:30;10.30;;;6.00;;
51792;SDS011;37850;53.178;6.376;2023-03-01T07:54:56;11.30;;;6.55;;
51792;SDS011;37850;53.178;6.376;2023-03-01T07:57:22;9.65;;;6.10;;
51792;SDS011;37850;53.178;6.376;2023-03-01T07:59:48;10.63;;;5.85;;
51792;SDS011;37850;53.178;6.376;2023-03-01T08:02:14;11.13;;;6.28;;
51792;SDS011;37850;53.178;6.376;2023-03-01T08:04:40;12.05;;;7.05;;
51792;SDS011;37850;53.178;6.376;2023-03-01T08:07:07;14.77;;;7.60;;
51792;SDS011;37850;53.178;6.376;2023-03-01T08:09:36;14.63;;;8.38;;
51792;SDS011;37850;53.178;6.376;2023-03-01T08:12:03;15.38;;;8.98;;
51792;SDS011;37850;53.178;6.376;2023-03-01T08:14:30;14.20;;;8.63;;
51792;SDS011;37850;53.178;6.376;2023-03-01T08:16:57;14.82;;;8.63;;
51792;SDS011;37850;53.178;6.376;2023-03-01T08:19:23;15.95;;;9.23;;
51792;SDS011;37850;53.178;6.376;2023-03-01T08:21:49;17.60;;;10.20;;
51792;SDS011;37850;53.178;6.376;2023-03-01T08:24:14;17.65;;;10.77;;
51792;SDS011;37850;53.178;6.376;2023-03-01T08:26:40;20.77;;;11.30;;
51792;SDS011;37850;53.178;6.376;2023-03-01T08:29:07;21.40;;;12.80;;
51792;SDS011;37850;53.178;6.376;2023-03-01T08:31:34;22.63;;;13.18;;
51792;SDS011;37850;53.178;6.376;2023-03-01T08:34:03;21.83;;;12.98;;
51792;SDS011;37850;53.178;6.376;2023-03-01T08:36:34;23.10;;;13.13;;
51792;SDS011;37850;53.178;6.376;2023-03-01T08:39:02;22.05;;;12.23;;
51792;SDS011;37850;53.178;6.376;2023-03-01T08:41:28;25.90;;;12.80;;
51792;SDS011;37850;53.178;6.376;2023-03-01T08:43:54;28.52;;;14.32;;
51792;SDS011;37850;53.178;6.376;2023-03-01T08:46:24;24.63;;;14.60;;
51792;SDS011;37850;53.178;6.376;2023-03-01T08:48:54;27.08;;;15.57;;
51792;SDS011;37850;53.178;6.376;2023-03-01T08:51:19;25.98;;;14.55;;
51792;SDS011;37850;53.178;6.376;2023-03-01T08:53:46;27.40;;;14.95;;
51792;SDS011;37850;53.178;6.376;2023-03-01T08:56:12;33.80;;;18.02;;
51792;SDS011;37850;53.178;6.376;2023-03-01T08:58:38;29.75;;;17.42;;
51792;SDS011;37850;53.178;6.376;2023-03-01T09:01:10;30.70;;;18.40;;
51792;SDS011;37850;53.178;6.376;2023-03-01T09:03:36;31.20;;;18.33;;
51792;SDS011;37850;53.178;6.376;2023-03-01T09:06:03;35.72;;;19.20;;
51792;SDS011;37850;53.178;6.376;2023-03-01T09:08:30;33.92;;;18.40;;
51792;SDS011;37850;53.178;6.376;2023-03-01T09:11:00;33.40;;;19.17;;
51792;SDS011;37850;53.178;6.376;2023-03-01T09:13:27;33.50;;;19.70;;
51792;SDS011;37850;53.178;6.376;2023-03-01T09:15:56;38.05;;;21.35;;
51792;SDS011;37850;53.178;6.376;2023-03-01T09:18:23;40.38;;;22.10;;
51792;SDS011;37850;53.178;6.376;2023-03-01T09:20:48;41.10;;;23.20;;
51792;SDS011;37850;53.178;6.376;2023-03-01T09:23:14;38.58;;;24.00;;
51792;SDS011;37850;53.178;6.376;2023-03-01T09:25:40;38.60;;;24.75;;
51792;SDS011;37850;53.178;6.376;2023-03-01T09:28:06;40.28;;;23.52;;
51792;SDS011;37850;53.178;6.376;2023-03-01T09:30:32;42.63;;;25.42;;
51792;SDS011;37850;53.178;6.376;2023-03-01T09:32:57;40.72;;;25.50;;
51792;SDS011;37850;53.178;6.376;2023-03-01T09:35:23;43.47;;;27.65;;
51792;SDS011;37850;53.178;6.376;2023-03-01T09:37:49;44.70;;;27.25;;
51792;SDS011;37850;53.178;6.376;2023-03-01T09:40:17;47.10;;;27.50;;
51792;SDS011;37850;53.178;6.376;2023-03-01T09:42:48;42.22;;;27.88;;
51792;SDS011;37850;53.178;6.376;2023-03-01T09:45:35;40.42;;;25.77;;
51792;SDS011;37850;53.178;6.376;2023-03-01T09:50:38;38.10;;;23.40;;
51792;SDS011;37850;53.178;6.376;2023-03-01T09:53:07;39.70;;;24.13;;
51792;SDS011;37850;53.178;6.376;2023-03-01T09:55:43;33.25;;;20.80;;
51792;SDS011;37850;53.178;6.376;2023-03-01T10:04:00;30.25;;;18.65;;
51792;SDS011;37850;53.178;6.376;2023-03-01T10:06:35;29.48;;;17.90;;
51792;SDS011;37850;53.178;6.376;2023-03-01T10:09:10;29.30;;;18.65;;
51792;SDS011;37850;53.178;6.376;2023-03-01T10:11:41;33.03;;;19.63;;
51792;SDS011;37850;53.178;6.376;2023-03-01T10:16:58;27.67;;;16.20;;
51792;SDS011;37850;53.178;6.376;2023-03-01T10:19:36;22.60;;;13.93;;
51792;SDS011;37850;53.178;6.376;2023-03-01T10:22:13;23.65;;;14.23;;
51792;SDS011;37850;53.178;6.376;2023-03-01T10:24:57;25.75;;;15.85;;
51792;SDS011;37850;53.178;6.376;2023-03-01T10:30:21;30.08;;;17.45;;
51792;SDS011;37850;53.178;6.376;2023-03-01T10:32:54;31.52;;;18.83;;
51792;SDS011;37850;53.178;6.376;2023-03-01T10:35:26;31.48;;;19.42;;
51792;SDS011;37850;53.178;6.376;2023-03-01T10:38:03;30.00;;;17.67;;
51792;SDS011;37850;53.178;6.376;2023-03-01T10:40:32;32.05;;;19.17;;
51792;SDS011;37850;53.178;6.376;2023-03-01T10:43:00;28.30;;;18.52;;
51792;SDS011;37850;53.178;6.376;2023-03-01T10:45:35;27.27;;;18.15;;
51792;SDS011;37850;53.178;6.376;2023-03-01T10:50:39;28.92;;;16.88;;
51792;SDS011;37850;53.178;6.376;2023-03-01T10:55:58;27.63;;;17.10;;
51792;SDS011;37850;53.178;6.376;2023-03-01T10:58:26;28.83;;;16.85;;
51792;SDS011;37850;53.178;6.376;2023-03-01T11:00:57;28.02;;;16.73;;
51792;SDS011;37850;53.178;6.376;2023-03-01T11:03:34;31.05;;;17.23;;
51792;SDS011;37850;53.178;6.376;2023-03-01T11:08:51;29.42;;;17.77;;
51792;SDS011;37850;53.178;6.376;2023-03-01T11:11:34;29.85;;;18.58;;
51792;SDS011;37850;53.178;6.376;2023-03-01T11:14:06;23.35;;;15.95;;
51792;SDS011;37850;53.178;6.376;2023-03-01T11:16:39;24.75;;;16.65;;
51792;SDS011;37850;53.178;6.376;2023-03-01T11:21:36;25.52;;;15.27;;
51792;SDS011;37850;53.178;6.376;2023-03-01T11:24:09;23.58;;;15.35;;
51792;SDS011;37850;53.178;6.376;2023-03-01T11:26:41;24.25;;;15.32;;
51792;SDS011;37850;53.178;6.376;2023-03-01T11:29:35;24.92;;;15.52;;
51792;SDS011;37850;53.178;6.376;2023-03-01T11:32:07;29.85;;;17.65;;
51792;SDS011;37850;53.178;6.376;2023-03-01T11:34:43;24.13;;;16.00;;
51792;SDS011;37850;53.178;6.376;2023-03-01T11:40:32;26.05;;;15.30;;
51792;SDS011;37850;53.178;6.376;2023-03-01T11:48:59;21.95;;;13.20;;
51792;SDS011;37850;53.178;6.376;2023-03-01T12:02:27;21.35;;;12.18;;
51792;SDS011;37850;53.178;6.376;2023-03-01T12:08:01;19.70;;;12.15;;
51792;SDS011;37850;53.178;6.376;2023-03-01T12:13:33;21.15;;;12.85;;
51792;SDS011;37850;53.178;6.376;2023-03-01T12:16:22;21.38;;;13.23;;
51792;SDS011;37850;53.178;6.376;2023-03-01T12:18:55;21.20;;;12.25;;
51792;SDS011;37850;53.178;6.376;2023-03-01T12:27:00;17.67;;;11.20;;
51792;SDS011;37850;53.178;6.376;2023-03-01T12:29:41;25.27;;;12.95;;
51792;SDS011;37850;53.178;6.376;2023-03-01T12:32:37;18.52;;;11.07;;
51792;SDS011;37850;53.178;6.376;2023-03-01T12:35:49;17.63;;;10.77;;
51792;SDS011;37850;53.178;6.376;2023-03-01T12:38:43;20.63;;;11.70;;
51792;SDS011;37850;53.178;6.376;2023-03-01T12:49:55;19.90;;;11.07;;
51792;SDS011;37850;53.178;6.376;2023-03-01T12:55:06;18.33;;;10.90;;
51792;SDS011;37850;53.178;6.376;2023-03-01T12:58:00;18.40;;;11.23;;
51792;SDS011;37850;53.178;6.376;2023-03-01T13:11:12;20.92;;;10.85;;
51792;SDS011;37850;53.178;6.376;2023-03-01T13:13:45;16.98;;;11.02;;
51792;SDS011;37850;53.178;6.376;2023-03-01T13:19:16;18.23;;;11.23;;
51792;SDS011;37850;53.178;6.376;2023-03-01T13:21:44;18.58;;;11.20;;
51792;SDS011;37850;53.178;6.376;2023-03-01T13:24:45;18.33;;;12.15;;
51792;SDS011;37850;53.178;6.376;2023-03-01T13:29:50;16.38;;;10.10;;
51792;SDS011;37850;53.178;6.376;2023-03-01T13:32:31;20.98;;;10.07;;
51792;SDS011;37850;53.178;6.376;2023-03-01T13:35:00;16.63;;;10.25;;
51792;SDS011;37850;53.178;6.376;2023-03-01T13:37:44;20.02;;;11.93;;
51792;SDS011;37850;53.178;6.376;2023-03-01T13:42:55;17.30;;;10.07;;
51792;SDS011;37850;53.178;6.376;2023-03-01T13:45:23;17.58;;;10.82;;
51792;SDS011;37850;53.178;6.376;2023-03-01T13:47:55;15.65;;;10.25;;
51792;SDS011;37850;53.178;6.376;2023-03-01T13:50:28;14.38;;;9.82;;
51792;SDS011;37850;53.178;6.376;2023-03-01T13:52:59;16.70;;;11.20;;
51792;SDS011;37850;53.178;6.376;2023-03-01T13:55:35;14.57;;;9.73;;
51792;SDS011;37850;53.178;6.376;2023-03-01T13:58:03;15.60;;;10.18;;
51792;SDS011;37850;53.178;6.376;2023-03-01T14:00:40;18.13;;;9.95;;
51792;SDS011;37850;53.178;6.376;2023-03-01T14:05:44;14.57;;;9.23;;
51792;SDS011;37850;53.178;6.376;2023-03-01T14:08:25;17.88;;;10.45;;
51792;SDS011;37850;53.178;6.376;2023-03-01T14:16:08;15.95;;;9.38;;
51792;SDS011;37850;53.178;6.376;2023-03-01T14:18:39;20.42;;;11.32;;
51792;SDS011;37850;53.178;6.376;2023-03-01T14:21:13;20.08;;;11.20;;
51792;SDS011;37850;53.178;6.376;2023-03-01T14:23:41;18.85;;;11.65;;
51792;SDS011;37850;53.178;6.376;2023-03-01T14:26:10;17.05;;;10.23;;
51792;SDS011;37850;53.178;6.376;2023-03-01T14:28:37;15.52;;;9.85;;
51792;SDS011;37850;53.178;6.376;2023-03-01T14:31:25;17.45;;;10.23;;
51792;SDS011;37850;53.178;6.376;2023-03-01T14:34:03;18.77;;;11.13;;
51792;SDS011;37850;53.178;6.376;2023-03-01T14:36:31;17.15;;;10.25;;
51792;SDS011;37850;53.178;6.376;2023-03-01T14:38:58;19.90;;;10.77;;
51792;SDS011;37850;53.178;6.376;2023-03-01T14:41:30;19.35;;;9.82;;
51792;SDS011;37850;53.178;6.376;2023-03-01T14:44:05;14.90;;;10.23;;
51792;SDS011;37850;53.178;6.376;2023-03-01T14:46:41;15.90;;;9.13;;
51792;SDS011;37850;53.178;6.376;2023-03-01T14:51:38;18.15;;;10.13;;
51792;SDS011;37850;53.178;6.376;2023-03-01T14:56:53;18.77;;;10.20;;
51792;SDS011;37850;53.178;6.376;2023-03-01T14:59:23;17.67;;;10.00;;
51792;SDS011;37850;53.178;6.376;2023-03-01T15:01:50;16.50;;;10.80;;
51792;SDS011;37850;53.178;6.376;2023-03-01T15:04:18;17.55;;;10.63;;
51792;SDS011;37850;53.178;6.376;2023-03-01T15:06:46;15.57;;;10.20;;
51792;SDS011;37850;53.178;6.376;2023-03-01T15:09:15;18.98;;;11.43;;
51792;SDS011;37850;53.178;6.376;2023-03-01T15:11:42;16.02;;;11.10;;
51792;SDS011;37850;53.178;6.376;2023-03-01T15:19:59;17.25;;;11.05;;
51792;SDS011;37850;53.178;6.376;2023-03-01T15:22:27;20.13;;;11.27;;
51792;SDS011;37850;53.178;6.376;2023-03-01T15:24:53;17.88;;;11.25;;
51792;SDS011;37850;53.178;6.376;2023-03-01T15:27:21;20.17;;;11.32;;
51792;SDS011;37850;53.178;6.376;2023-03-01T15:29:50;17.13;;;11.93;;
51792;SDS011;37850;53.178;6.376;2023-03-01T15:32:31;18.88;;;11.80;;
51792;SDS011;37850;53.178;6.376;2023-03-01T15:34:59;17.77;;;11.95;;
51792;SDS011;37850;53.178;6.376;2023-03-01T15:37:49;18.25;;;12.00;;
51792;SDS011;37850;53.178;6.376;2023-03-01T15:40:22;17.58;;;10.85;;
51792;SDS011;37850;53.178;6.376;2023-03-01T15:42:56;20.52;;;10.85;;
51792;SDS011;37850;53.178;6.376;2023-03-01T15:45:27;19.75;;;10.55;;
51792;SDS011;37850;53.178;6.376;2023-03-01T15:50:30;18.65;;;11.20;;
51792;SDS011;37850;53.178;6.376;2023-03-01T15:53:03;16.25;;;10.77;;
51792;SDS011;37850;53.178;6.376;2023-03-01T15:55:35;20.55;;;11.65;;
51792;SDS011;37850;53.178;6.376;2023-03-01T15:58:15;17.08;;;11.52;;
51792;SDS011;37850;53.178;6.376;2023-03-01T16:00:43;24.30;;;11.82;;
51792;SDS011;37850;53.178;6.376;2023-03-01T16:03:10;19.77;;;11.85;;
51792;SDS011;37850;53.178;6.376;2023-03-01T16:05:37;19.90;;;11.27;;
51792;SDS011;37850;53.178;6.376;2023-03-01T16:08:04;19.13;;;11.52;;
51792;SDS011;37850;53.178;6.376;2023-03-01T16:10:34;18.50;;;11.20;;
51792;SDS011;37850;53.178;6.376;2023-03-01T16:13:00;22.25;;;12.07;;
51792;SDS011;37850;53.178;6.376;2023-03-01T16:15:30;19.92;;;11.50;;
51792;SDS011;37850;53.178;6.376;2023-03-01T16:18:01;21.05;;;12.15;;
51792;SDS011;37850;53.178;6.376;2023-03-01T16:20:36;17.92;;;10.85;;
51792;SDS011;37850;53.178;6.376;2023-03-01T16:23:04;20.15;;;11.30;;
51792;SDS011;37850;53.178;6.376;2023-03-01T16:25:32;17.67;;;11.43;;
51792;SDS011;37850;53.178;6.376;2023-03-01T16:27:58;20.52;;;12.00;;
51792;SDS011;37850;53.178;6.376;2023-03-01T16:30:26;22.42;;;13.05;;
51792;SDS011;37850;53.178;6.376;2023-03-01T16:32:52;22.05;;;13.70;;
51792;SDS011;37850;53.178;6.376;2023-03-01T16:35:18;22.33;;;14.48;;
51792;SDS011;37850;53.178;6.376;2023-03-01T16:37:46;23.63;;;14.07;;
51792;SDS011;37850;53.178;6.376;2023-03-01T16:40:25;21.58;;;12.43;;
51792;SDS011;37850;53.178;6.376;2023-03-01T16:42:53;23.95;;;14.23;;
51792;SDS011;37850;53.178;6.376;2023-03-01T16:45:20;21.52;;;13.35;;
51792;SDS011;37850;53.178;6.376;2023-03-01T16:47:46;24.17;;;14.50;;
51792;SDS011;37850;53.178;6.376;2023-03-01T16:50:12;22.10;;;13.23;;